Time;durP1;ratioP1;P1;durP2;ratioP2;P2;SDS_P1;SDS_P2;PMS_P1;PMS_P2;Temp;Humidity;BMP_temperature;BMP_pressure;BME280_temperature;BME280_humidity;BME280_pressure;Samples;Min_cycle;Max_cycle;Signal;HPM_P1;HPM_P2
2022/11/30 00:01:15;;;;;;;39.60;22.33;;;5.60;94.00;;;;;;4960525;28;20057;-74
2022/11/30 00:03:41;;;;;;;40.42;22.77;;;5.60;94.00;;;;;;4962842;28;20066;-73
2022/11/30 00:06:10;;;;;;;43.58;23.55;;;5.50;94.00;;;;;;4968834;28;20178;-73
2022/11/30 00:08:36;;;;;;;43.80;24.95;;;5.60;94.10;;;;;;4966875;28;20114;-74
2022/11/30 00:11:09;;;;;;;46.30;24.23;;;5.60;94.00;;;;;;4965989;28;20377;-73
2022/11/30 00:13:35;;;;;;;45.60;24.80;;;5.60;94.10;;;;;;4965866;28;20050;-73
2022/11/30 00:16:00;;;;;;;46.72;23.73;;;5.60;94.10;;;;;;4965151;28;20047;-72
2022/11/30 00:18:26;;;;;;;56.10;26.02;;;5.60;94.00;;;;;;4967873;28;20382;-74
2022/11/30 00:20:53;;;;;;;47.85;24.17;;;5.60;94.00;;;;;;4960971;28;20480;-73
2022/11/30 00:23:18;;;;;;;50.15;24.95;;;5.60;94.00;;;;;;4977911;28;20042;-72
2022/11/30 00:25:44;;;;;;;47.65;24.63;;;5.50;94.00;;;;;;4967831;28;20031;-72
2022/11/30 00:28:10;;;;;;;53.72;26.65;;;5.60;94.00;;;;;;4965281;28;20046;-73
2022/11/30 00:30:36;;;;;;;48.28;24.08;;;5.60;94.00;;;;;;4964039;28;20043;-72
2022/11/30 00:33:01;;;;;;;45.67;23.60;;;5.60;94.10;;;;;;4967380;28;20092;-73
2022/11/30 00:35:27;;;;;;;50.42;25.33;;;5.60;94.00;;;;;;4962945;28;20449;-72
2022/11/30 00:37:53;;;;;;;48.50;24.80;;;5.60;94.10;;;;;;4960731;28;20068;-74
2022/11/30 00:40:18;;;;;;;61.92;27.15;;;5.60;94.10;;;;;;4962752;28;20042;-73
2022/11/30 00:42:44;;;;;;;60.88;27.00;;;5.50;94.00;;;;;;4962830;28;20441;-72
2022/11/30 00:45:10;;;;;;;52.53;25.65;;;5.60;94.10;;;;;;4964436;28;20027;-74
2022/11/30 00:47:35;;;;;;;67.05;28.63;;;5.60;94.10;;;;;;4967412;28;20070;-72
2022/11/30 00:50:02;;;;;;;56.08;28.08;;;5.60;94.10;;;;;;4963945;28;20066;-73
2022/11/30 00:52:29;;;;;;;58.85;28.95;;;5.60;94.10;;;;;;4966691;28;20061;-74
2022/11/30 00:54:55;;;;;;;49.20;25.23;;;5.60;94.10;;;;;;4970537;28;20027;-72
2022/11/30 00:57:21;;;;;;;50.85;26.27;;;5.60;94.10;;;;;;4967768;28;20120;-74
2022/11/30 00:59:46;;;;;;;53.40;27.52;;;5.60;94.20;;;;;;4969344;28;20045;-72
2022/11/30 01:02:12;;;;;;;47.67;26.08;;;5.60;94.20;;;;;;4963435;28;20030;-73
2022/11/30 01:04:38;;;;;;;49.85;25.48;;;5.70;94.10;;;;;;4973414;28;20452;-73
2022/11/30 01:07:04;;;;;;;53.30;26.15;;;5.60;94.10;;;;;;4968610;28;20274;-72
2022/11/30 01:09:29;;;;;;;44.15;23.45;;;5.60;94.10;;;;;;4962873;28;20035;-73
2022/11/30 01:11:55;;;;;;;44.55;24.52;;;5.60;94.10;;;;;;4970956;28;20034;-72
2022/11/30 01:14:20;;;;;;;48.50;24.52;;;5.60;94.10;;;;;;4962936;28;20308;-73
2022/11/30 01:16:46;;;;;;;45.90;24.48;;;5.70;94.20;;;;;;4971682;28;20038;-72
2022/11/30 01:19:12;;;;;;;38.83;21.15;;;5.60;94.10;;;;;;4967141;28;20101;-73
2022/11/30 01:21:37;;;;;;;39.60;22.55;;;5.70;94.10;;;;;;4966149;28;20043;-73
2022/11/30 01:24:03;;;;;;;39.15;22.33;;;5.60;94.10;;;;;;4968761;28;20042;-73
2022/11/30 01:26:29;;;;;;;37.58;21.85;;;5.60;94.10;;;;;;4969796;28;20426;-72
2022/11/30 01:28:55;;;;;;;43.65;22.80;;;5.70;94.10;;;;;;4975670;28;20045;-75
2022/11/30 01:31:23;;;;;;;39.40;20.85;;;5.70;94.10;;;;;;4969576;28;20110;-75
2022/11/30 01:33:53;;;;;;;42.25;23.65;;;5.70;94.10;;;;;;4970772;28;20086;-73
2022/11/30 01:36:25;;;;;;;41.58;22.88;;;5.70;94.10;;;;;;4970495;28;20046;-75
2022/11/30 01:38:53;;;;;;;44.35;23.52;;;5.70;94.10;;;;;;4962736;28;20055;-72
2022/11/30 01:41:23;;;;;;;48.13;24.00;;;5.70;94.10;;;;;;4970194;28;20027;-72
2022/11/30 01:43:52;;;;;;;45.22;23.55;;;5.70;94.10;;;;;;4959286;28;20023;-73
2022/11/30 01:46:23;;;;;;;51.03;26.38;;;5.70;94.10;;;;;;4963811;28;20039;-73
2022/11/30 01:49:05;;;;;;;52.50;26.02;;;5.70;94.10;;;;;;4971961;28;20035;-73
2022/11/30 01:51:56;;;;;;;56.10;26.10;;;5.70;94.10;;;;;;4967601;28;20039;-72
2022/11/30 01:54:30;;;;;;;55.40;25.23;;;5.60;94.00;;;;;;4964153;28;20451;-73
2022/11/30 01:56:58;;;;;;;;;;;5.70;94.00;;;;;;4969027;28;20042;-74
2022/11/30 01:59:25;;;;;;;48.40;24.33;;;5.60;94.00;;;;;;4973060;28;19921;-73
2022/11/30 02:01:52;;;;;;;55.45;26.70;;;5.70;94.00;;;;;;4962860;28;20031;-73
2022/11/30 02:04:26;;;;;;;51.47;26.83;;;5.60;94.00;;;;;;4971505;28;20133;-73
2022/11/30 02:06:52;;;;;;;52.75;26.83;;;5.70;94.10;;;;;;4967374;28;20057;-73
2022/11/30 02:09:19;;;;;;;51.78;25.50;;;5.60;94.00;;;;;;4968544;28;20125;-73
2022/11/30 02:11:45;;;;;;;49.65;26.10;;;5.70;94.10;;;;;;4970117;28;20098;-73
2022/11/30 02:14:40;;;;;;;47.90;25.08;;;5.70;94.00;;;;;;4969090;28;20283;-74
2022/11/30 02:17:49;;;;;;;49.08;25.73;;;5.70;94.00;;;;;;4960191;28;20058;-74
2022/11/30 02:20:43;;;;;;;52.65;26.25;;;5.70;94.00;;;;;;4960934;28;20177;-71
2022/11/30 02:23:24;;;;;;;50.10;25.45;;;5.70;94.00;;;;;;4961624;28;20035;-73
2022/11/30 02:26:06;;;;;;;57.10;26.02;;;5.70;93.90;;;;;;4964256;28;20023;-74
2022/11/30 02:28:37;;;;;;;52.72;24.92;;;5.70;94.00;;;;;;4962016;28;20042;-74
2022/11/30 02:31:07;;;;;;;50.45;26.20;;;5.70;94.00;;;;;;4962866;28;20073;-73
2022/11/30 02:33:33;;;;;;;49.60;23.30;;;5.70;94.00;;;;;;4958603;28;20063;-73
2022/11/30 02:36:00;;;;;;;47.90;23.92;;;5.70;94.00;;;;;;4956813;28;20054;-74
2022/11/30 02:38:27;;;;;;;51.67;24.23;;;5.70;94.00;;;;;;4966372;28;20518;-73
2022/11/30 02:40:53;;;;;;;55.30;26.00;;;5.70;94.00;;;;;;4968604;28;20053;-73
2022/11/30 02:43:25;;;;;;;50.47;26.45;;;5.70;94.00;;;;;;4966145;28;20545;-76
2022/11/30 02:46:15;;;;;;;51.13;24.73;;;5.70;94.00;;;;;;4968486;28;20023;-73
2022/11/30 02:49:04;;;;;;;56.15;27.23;;;5.70;94.10;;;;;;4962559;28;20035;-72
2022/11/30 02:51:33;;;;;;;55.13;24.75;;;5.80;94.10;;;;;;4964789;28;20229;-73
2022/11/30 02:53:59;;;;;;;57.78;25.25;;;5.70;94.10;;;;;;4972288;28;20106;-72
2022/11/30 02:56:25;;;;;;;57.47;27.88;;;5.70;94.00;;;;;;4977280;28;20118;-73
2022/11/30 02:58:51;;;;;;;50.22;25.05;;;5.70;94.10;;;;;;4971817;28;20110;-73
2022/11/30 03:01:17;;;;;;;57.45;25.60;;;5.80;94.10;;;;;;4967915;28;20031;-73
2022/11/30 03:03:43;;;;;;;56.47;26.60;;;5.70;94.10;;;;;;4968605;28;20117;-72
2022/11/30 03:06:09;;;;;;;54.63;26.75;;;5.80;94.10;;;;;;4974167;28;20042;-72
2022/11/30 03:08:35;;;;;;;58.00;26.50;;;5.80;94.10;;;;;;4962378;28;20050;-73
2022/11/30 03:11:02;;;;;;;55.78;26.35;;;5.80;94.10;;;;;;4972784;28;20113;-74
2022/11/30 03:13:29;;;;;;;52.92;25.48;;;5.80;94.10;;;;;;4957247;28;20062;-72
2022/11/30 03:15:55;;;;;;;52.33;26.95;;;5.80;94.10;;;;;;4968484;28;20039;-73
2022/11/30 03:18:21;;;;;;;47.95;25.45;;;5.80;94.10;;;;;;4963295;28;20109;-73
2022/11/30 03:20:46;;;;;;;51.47;27.48;;;5.80;94.10;;;;;;4968604;28;20054;-75
2022/11/30 03:23:12;;;;;;;47.72;24.67;;;5.80;94.10;;;;;;4965248;28;20041;-72
2022/11/30 03:25:37;;;;;;;49.17;25.08;;;5.90;94.10;;;;;;4963295;28;20039;-72
2022/11/30 03:28:03;;;;;;;50.03;25.70;;;5.80;94.10;;;;;;4968535;28;20035;-74
2022/11/30 03:30:29;;;;;;;49.03;26.88;;;5.80;94.10;;;;;;4965099;28;20035;-73
2022/11/30 03:32:55;;;;;;;55.42;27.27;;;5.90;94.10;;;;;;4967407;28;20360;-73
2022/11/30 03:35:20;;;;;;;57.65;28.25;;;5.90;94.10;;;;;;4964498;28;21043;-73
2022/11/30 03:37:47;;;;;;;58.70;27.80;;;5.90;94.10;;;;;;4960284;28;20046;-72
2022/11/30 03:40:12;;;;;;;48.80;26.02;;;5.90;94.00;;;;;;4965596;28;20037;-73
2022/11/30 03:42:38;;;;;;;55.92;26.40;;;5.90;94.10;;;;;;4964327;28;20035;-71
2022/11/30 03:45:04;;;;;;;47.05;25.05;;;5.90;94.10;;;;;;4962727;28;20105;-73
2022/11/30 03:47:30;;;;;;;48.20;24.77;;;5.90;94.10;;;;;;4963744;28;20120;-74
2022/11/30 03:49:55;;;;;;;55.63;25.27;;;5.90;94.10;;;;;;4961355;28;20041;-72
2022/11/30 03:52:21;;;;;;;52.72;26.80;;;5.90;94.10;;;;;;4965125;28;20046;-74
2022/11/30 03:54:47;;;;;;;48.63;24.25;;;5.90;94.00;;;;;;4963990;28;20046;-72
2022/11/30 03:57:12;;;;;;;49.28;24.48;;;6.00;94.10;;;;;;4964954;28;20173;-72
2022/11/30 03:59:38;;;;;;;50.70;24.58;;;6.00;94.00;;;;;;4964915;28;20092;-74
2022/11/30 04:02:04;;;;;;;51.20;25.42;;;5.90;94.00;;;;;;4969694;28;20027;-73
2022/11/30 04:04:29;;;;;;;52.45;25.15;;;5.90;94.00;;;;;;4972509;28;20045;-73
2022/11/30 04:06:55;;;;;;;53.65;26.10;;;5.90;94.00;;;;;;4962802;28;20055;-71
2022/11/30 04:09:20;;;;;;;51.97;25.08;;;5.90;94.00;;;;;;4965569;28;20042;-72
2022/11/30 04:11:46;;;;;;;59.85;26.55;;;5.90;94.00;;;;;;4967960;28;20070;-74
2022/11/30 04:14:12;;;;;;;55.78;26.77;;;6.00;94.00;;;;;;4966508;28;20560;-73
2022/11/30 04:16:37;;;;;;;53.60;23.92;;;5.90;94.00;;;;;;4968611;28;20086;-74
2022/11/30 04:19:03;;;;;;;57.17;27.63;;;6.00;94.10;;;;;;4961369;28;20491;-72
2022/11/30 04:21:29;;;;;;;59.10;27.75;;;5.90;94.00;;;;;;4965545;28;20051;-72
2022/11/30 04:23:54;;;;;;;56.83;26.50;;;6.00;94.10;;;;;;4972729;28;20030;-72
2022/11/30 04:26:20;;;;;;;58.08;26.98;;;5.90;94.00;;;;;;4967937;28;20050;-72
2022/11/30 04:28:46;;;;;;;57.28;27.88;;;5.90;94.00;;;;;;4964641;28;20457;-74
2022/11/30 04:31:12;;;;;;;58.67;27.20;;;5.90;94.00;;;;;;4959688;28;20523;-72
2022/11/30 04:33:37;;;;;;;58.25;27.25;;;6.00;94.00;;;;;;4967692;28;20417;-72
2022/11/30 04:36:06;;;;;;;52.67;25.38;;;6.00;94.00;;;;;;4964080;28;20042;-75
2022/11/30 04:38:32;;;;;;;55.88;27.20;;;6.00;94.00;;;;;;4969183;28;20495;-73
2022/11/30 04:40:58;;;;;;;51.60;26.45;;;6.00;93.90;;;;;;4963611;28;20039;-74
2022/11/30 04:43:24;;;;;;;56.47;27.30;;;5.90;93.90;;;;;;4966615;28;20460;-75
2022/11/30 04:45:50;;;;;;;56.60;25.70;;;5.90;94.00;;;;;;4970559;28;20037;-72
2022/11/30 04:48:17;;;;;;;57.00;27.05;;;6.00;94.00;;;;;;4961687;28;20043;-75
2022/11/30 04:50:43;;;;;;;51.60;25.98;;;6.00;93.90;;;;;;4970239;28;20043;-72
2022/11/30 04:53:09;;;;;;;53.75;25.80;;;6.00;93.90;;;;;;4969028;28;20029;-72
2022/11/30 04:55:37;;;;;;;51.65;25.67;;;6.00;94.00;;;;;;4973054;28;20034;-73
2022/11/30 04:58:03;;;;;;;59.63;28.63;;;6.00;93.90;;;;;;4974790;28;20050;-73
2022/11/30 05:00:29;;;;;;;56.45;26.75;;;6.00;93.90;;;;;;4975447;28;20054;-73
2022/11/30 05:02:55;;;;;;;57.88;25.48;;;6.00;93.90;;;;;;4969156;28;20030;-73
2022/11/30 05:05:22;;;;;;;57.80;27.50;;;6.00;93.90;;;;;;4963753;28;20520;-73
2022/11/30 05:07:54;;;;;;;58.05;27.10;;;6.00;93.90;;;;;;4971352;28;20042;-74
2022/11/30 05:10:20;;;;;;;58.20;26.77;;;6.00;94.00;;;;;;4969593;28;20030;-73
2022/11/30 05:12:46;;;;;;;60.33;28.48;;;6.00;94.00;;;;;;4965861;28;20039;-74
2022/11/30 05:15:12;;;;;;;62.97;29.42;;;5.90;93.90;;;;;;4966467;28;20030;-74
2022/11/30 05:17:37;;;;;;;59.53;26.17;;;5.90;94.00;;;;;;4960584;28;20078;-72
2022/11/30 05:20:04;;;;;;;57.65;28.08;;;6.00;94.00;;;;;;4963480;28;20050;-73
2022/11/30 05:22:29;;;;;;;60.88;29.30;;;6.00;94.00;;;;;;4965952;28;20038;-75
2022/11/30 05:24:55;;;;;;;70.45;31.42;;;6.00;94.00;;;;;;4962664;28;20077;-73
2022/11/30 05:27:21;;;;;;;68.53;29.65;;;6.00;94.00;;;;;;4959802;28;20069;-73
2022/11/30 05:29:46;;;;;;;66.13;29.35;;;5.90;93.90;;;;;;4962151;28;20102;-74
2022/11/30 05:32:12;;;;;;;72.80;30.95;;;6.00;94.00;;;;;;4962270;28;20226;-74
2022/11/30 05:34:37;;;;;;;59.97;28.98;;;5.90;93.90;;;;;;4956612;28;20106;-74
2022/11/30 05:37:03;;;;;;;65.28;28.42;;;5.90;93.90;;;;;;4961713;28;20491;-71
2022/11/30 05:39:29;;;;;;;59.95;27.75;;;5.90;94.00;;;;;;4957165;28;20053;-74
2022/11/30 05:41:55;;;;;;;66.38;28.65;;;5.90;93.90;;;;;;4961954;28;20026;-73
2022/11/30 05:44:20;;;;;;;61.20;27.60;;;5.90;93.90;;;;;;4962270;28;20085;-73
2022/11/30 05:46:46;;;;;;;66.80;29.55;;;5.90;94.00;;;;;;4959744;28;20166;-74
2022/11/30 05:49:11;;;;;;;75.35;30.80;;;5.90;93.90;;;;;;4963322;28;20041;-74
2022/11/30 05:51:39;;;;;;;69.90;30.88;;;5.80;94.00;;;;;;4962334;28;20035;-72
2022/11/30 05:54:05;;;;;;;82.75;33.17;;;5.80;94.00;;;;;;4973593;28;20049;-75
2022/11/30 05:56:30;;;;;;;75.57;32.30;;;5.80;94.00;;;;;;4981892;28;20390;-72
2022/11/30 05:58:56;;;;;;;73.30;32.85;;;5.80;94.10;;;;;;4963377;28;20065;-73
2022/11/30 06:01:24;;;;;;;78.07;31.20;;;5.80;94.10;;;;;;4958760;28;20043;-74
2022/11/30 06:03:50;;;;;;;83.43;35.42;;;5.80;94.20;;;;;;4963679;28;20338;-72
2022/11/30 06:06:16;;;;;;;88.50;36.60;;;5.90;94.20;;;;;;4968463;28;20372;-75
2022/11/30 06:08:42;;;;;;;84.65;36.78;;;5.90;94.20;;;;;;4958170;28;20157;-72
2022/11/30 06:11:08;;;;;;;86.00;35.50;;;5.90;94.20;;;;;;4966945;28;20031;-73
2022/11/30 06:13:33;;;;;;;84.93;35.42;;;6.00;94.20;;;;;;4962589;28;20034;-73
2022/11/30 06:16:01;;;;;;;85.20;36.17;;;5.90;94.20;;;;;;4960073;28;20047;-74
2022/11/30 06:18:26;;;;;;;81.13;35.97;;;5.90;94.20;;;;;;4955837;28;20034;-74
2022/11/30 06:20:52;;;;;;;76.32;34.53;;;5.90;94.10;;;;;;4964165;28;20042;-74
2022/11/30 06:23:18;;;;;;;76.25;32.10;;;5.90;94.20;;;;;;4956188;28;20036;-74
2022/11/30 06:25:43;;;;;;;75.47;32.17;;;5.90;94.10;;;;;;4962132;28;20504;-75
2022/11/30 06:28:10;;;;;;;74.13;30.85;;;5.90;94.20;;;;;;4958004;28;20718;-71
2022/11/30 06:30:36;;;;;;;73.22;30.98;;;6.00;94.20;;;;;;4962908;28;20047;-74
2022/11/30 06:33:01;;;;;;;72.13;31.00;;;6.00;94.20;;;;;;4963800;28;20042;-73
2022/11/30 06:35:27;;;;;;;77.22;32.25;;;6.00;94.20;;;;;;4972705;28;20121;-72
2022/11/30 06:37:53;;;;;;;81.00;32.67;;;5.90;94.20;;;;;;4968079;28;20054;-73
2022/11/30 06:40:19;;;;;;;77.35;30.77;;;6.00;94.20;;;;;;4970955;28;20035;-73
2022/11/30 06:42:45;;;;;;;94.43;34.50;;;6.00;94.20;;;;;;4965409;28;20064;-73
2022/11/30 06:45:11;;;;;;;77.65;32.28;;;5.90;94.20;;;;;;4964271;28;20042;-73
2022/11/30 06:47:37;;;;;;;91.78;34.13;;;5.90;94.20;;;;;;4965063;28;20082;-73
2022/11/30 06:50:03;;;;;;;79.72;32.55;;;5.90;94.20;;;;;;4965750;28;20054;-73
2022/11/30 06:52:30;;;;;;;86.18;34.38;;;5.90;94.20;;;;;;4966132;28;20039;-75
2022/11/30 06:54:55;;;;;;;80.82;33.17;;;6.00;94.20;;;;;;4972359;28;20081;-74
2022/11/30 06:57:28;;;;;;;90.18;36.70;;;5.90;94.20;;;;;;4964377;28;20047;-73
2022/11/30 06:59:54;;;;;;;79.82;34.10;;;5.90;94.20;;;;;;4984712;28;20392;-72
2022/11/30 07:02:19;;;;;;;75.75;35.47;;;5.90;94.20;;;;;;4965287;28;20038;-73
2022/11/30 07:04:45;;;;;;;72.97;31.83;;;5.90;94.20;;;;;;4958618;28;20034;-75
2022/11/30 07:07:11;;;;;;;79.60;34.42;;;5.90;94.30;;;;;;4967951;28;20043;-73
2022/11/30 07:09:36;;;;;;;70.32;31.52;;;5.90;94.30;;;;;;4966499;28;20474;-73
2022/11/30 07:12:03;;;;;;;73.90;33.92;;;5.90;94.30;;;;;;4963650;28;20031;-73
2022/11/30 07:14:29;;;;;;;73.85;33.80;;;5.90;94.30;;;;;;4963510;28;20049;-74
2022/11/30 07:16:56;;;;;;;85.55;35.08;;;5.90;94.30;;;;;;4962458;28;20039;-73
2022/11/30 07:19:22;;;;;;;71.10;32.63;;;5.90;94.20;;;;;;4966063;28;20129;-73
2022/11/30 07:21:47;;;;;;;75.28;31.77;;;5.90;94.20;;;;;;4969165;28;20471;-73
2022/11/30 07:27:00;;;;;;;69.35;33.05;;;5.90;94.20;;;;;;4961117;28;20100;-73
2022/11/30 07:29:26;;;;;;;63.47;28.98;;;5.90;94.20;;;;;;4963173;28;20081;-73
2022/11/30 07:31:52;;;;;;;67.70;28.88;;;5.80;94.20;;;;;;4960994;28;20030;-71
2022/11/30 07:34:19;;;;;;;58.10;27.48;;;5.80;94.30;;;;;;4965207;28;20442;-72
2022/11/30 07:36:45;;;;;;;62.80;28.65;;;5.80;94.20;;;;;;4962947;28;20495;-72
2022/11/30 07:39:12;;;;;;;59.70;27.33;;;5.90;94.20;;;;;;4962001;28;20027;-73
2022/11/30 07:41:38;;;;;;;64.55;28.52;;;5.90;94.30;;;;;;4963927;28;20096;-74
2022/11/30 07:44:05;;;;;;;64.85;29.27;;;5.90;94.20;;;;;;4964557;28;20383;-74
2022/11/30 07:46:34;;;;;;;64.28;28.13;;;5.80;94.20;;;;;;4967147;28;20133;-74
2022/11/30 07:49:04;;;;;;;64.25;28.92;;;5.80;94.30;;;;;;4962782;28;20027;-76
2022/11/30 07:51:31;;;;;;;61.17;27.55;;;5.80;94.30;;;;;;4957174;28;20375;-75
2022/11/30 07:53:57;;;;;;;76.00;31.48;;;5.90;94.40;;;;;;4959702;28;20046;-73
2022/11/30 07:56:24;;;;;;;61.55;29.63;;;5.90;94.40;;;;;;4963299;28;20034;-76
2022/11/30 07:58:52;;;;;;;67.65;30.48;;;6.00;94.50;;;;;;4959627;28;20039;-73
2022/11/30 08:01:23;;;;;;;70.72;31.92;;;6.00;94.50;;;;;;4962423;28;20101;-74
2022/11/30 08:03:50;;;;;;;79.65;36.88;;;6.00;94.50;;;;;;4962154;28;20058;-74
2022/11/30 08:06:22;;;;;;;84.82;36.78;;;6.10;94.50;;;;;;4959063;28;20041;-74
2022/11/30 08:08:50;;;;;;;80.45;34.35;;;6.00;94.40;;;;;;4960059;28;20023;-74
2022/11/30 08:11:18;;;;;;;87.57;37.35;;;6.10;94.40;;;;;;4960135;28;20475;-76
2022/11/30 08:13:44;;;;;;;121.05;34.70;;;6.00;94.30;;;;;;4963279;28;20044;-74
2022/11/30 08:16:12;;;;;;;77.47;31.73;;;6.00;94.30;;;;;;4961747;28;20054;-76
2022/11/30 08:18:38;;;;;;;129.05;35.00;;;5.90;94.20;;;;;;4958661;28;20042;-74
2022/11/30 08:21:06;;;;;;;119.22;35.00;;;6.00;94.20;;;;;;4964018;28;20121;-74
2022/11/30 08:23:35;;;;;;;73.90;30.65;;;5.80;94.10;;;;;;4963087;28;20039;-76
2022/11/30 08:26:12;;;;;;;84.85;29.88;;;5.80;94.10;;;;;;4965499;28;20319;-76
2022/11/30 08:28:39;;;;;;;89.50;30.23;;;5.90;94.10;;;;;;4965402;28;20030;-76
2022/11/30 08:31:07;;;;;;;87.05;30.95;;;5.90;94.10;;;;;;4963674;28;20039;-77
2022/11/30 08:33:34;;;;;;;55.30;28.45;;;5.90;94.00;;;;;;4967908;28;20026;-76
2022/11/30 08:36:17;;;;;;;56.13;28.25;;;5.90;94.00;;;;;;4964342;28;20035;-76
2022/11/30 08:38:44;;;;;;;59.38;29.73;;;5.90;94.10;;;;;;4954994;28;20384;-76
2022/11/30 08:41:11;;;;;;;142.98;33.17;;;6.00;94.10;;;;;;4971973;28;20031;-75
2022/11/30 08:43:37;;;;;;;55.22;28.30;;;6.00;94.00;;;;;;4961830;28;20043;-74
2022/11/30 08:46:06;;;;;;;70.45;30.05;;;6.00;94.00;;;;;;4961489;28;20065;-75
2022/11/30 08:48:32;;;;;;;70.05;30.60;;;6.00;94.00;;;;;;4958025;28;20029;-73
2022/11/30 08:51:00;;;;;;;86.20;30.52;;;6.00;94.00;;;;;;4963853;28;20062;-76
2022/11/30 08:53:25;;;;;;;63.03;30.08;;;6.00;94.10;;;;;;4956228;28;20046;-73
2022/11/30 08:55:59;;;;;;;75.55;29.90;;;6.00;94.10;;;;;;4960773;28;20023;-74
2022/11/30 08:58:26;;;;;;;52.03;29.10;;;6.00;94.00;;;;;;4960659;28;20275;-76
2022/11/30 09:00:52;;;;;;;56.03;28.52;;;6.00;94.00;;;;;;4962174;28;20372;-76
2022/11/30 09:03:18;;;;;;;48.65;26.73;;;6.00;94.00;;;;;;4962524;28;20045;-75
2022/11/30 09:05:44;;;;;;;57.70;27.70;;;6.00;94.00;;;;;;4964020;28;20042;-73
2022/11/30 09:08:09;;;;;;;120.43;31.92;;;6.10;94.00;;;;;;4956112;28;20058;-74
2022/11/30 09:10:35;;;;;;;55.45;28.00;;;6.10;93.90;;;;;;4964830;28;20441;-75
2022/11/30 09:13:01;;;;;;;65.38;28.88;;;6.10;94.00;;;;;;4958354;28;20031;-76
2022/11/30 09:15:26;;;;;;;81.10;30.60;;;6.10;94.00;;;;;;4957352;28;20035;-77
2022/11/30 09:17:52;;;;;;;50.83;27.98;;;6.10;93.80;;;;;;4955548;28;20389;-75
2022/11/30 09:20:18;;;;;;;50.33;28.52;;;6.00;93.80;;;;;;4957462;28;20047;-75
2022/11/30 09:22:43;;;;;;;48.13;28.38;;;6.10;93.90;;;;;;4961667;28;20114;-75
2022/11/30 09:25:09;;;;;;;54.78;30.85;;;6.10;93.90;;;;;;4957882;28;20467;-76
2022/11/30 09:27:35;;;;;;;54.83;30.48;;;6.20;94.00;;;;;;4960861;28;20192;-75
2022/11/30 09:30:01;;;;;;;94.95;35.50;;;6.20;94.00;;;;;;4962576;28;20026;-75
2022/11/30 09:32:27;;;;;;;84.55;37.83;;;6.30;93.90;;;;;;4966568;28;20042;-74
2022/11/30 09:34:53;;;;;;;75.72;40.63;;;6.30;93.80;;;;;;4962910;28;20031;-76
2022/11/30 09:37:18;;;;;;;77.15;30.58;;;6.30;93.70;;;;;;4964402;28;20026;-76
2022/11/30 09:39:44;;;;;;;157.07;32.83;;;6.20;93.60;;;;;;4963700;28;20815;-74
2022/11/30 09:42:45;;;;;;;66.75;31.45;;;6.30;93.70;;;;;;4973590;28;20071;-75
2022/11/30 09:45:17;;;;;;;81.13;34.17;;;6.30;93.50;;;;;;4981429;28;20089;-75
2022/11/30 09:47:57;;;;;;;81.57;34.03;;;6.20;93.40;;;;;;4963765;28;20133;-74
2022/11/30 09:50:26;;;;;;;95.18;31.95;;;6.30;93.50;;;;;;4960930;28;20031;-75
2022/11/30 09:53:02;;;;;;;119.53;33.58;;;6.40;93.40;;;;;;4971149;28;20031;-76
2022/11/30 09:55:38;;;;;;;70.13;31.27;;;6.40;93.20;;;;;;4967603;28;20046;-76
2022/11/30 09:58:06;;;;;;;97.38;31.88;;;6.50;93.10;;;;;;4968700;28;20022;-75
2022/11/30 10:00:34;;;;;;;162.90;33.60;;;6.40;92.70;;;;;;4966986;28;20038;-75
2022/11/30 10:03:04;;;;;;;49.33;28.80;;;6.10;92.20;;;;;;4966467;28;20066;-76
2022/11/30 10:05:47;;;;;;;58.50;29.13;;;6.10;92.70;;;;;;4962724;28;20042;-75
2022/11/30 10:08:40;;;;;;;79.00;30.90;;;6.30;93.10;;;;;;4962773;28;20051;-75
2022/11/30 10:11:32;;;;;;;54.70;30.73;;;6.50;93.20;;;;;;4966196;28;20457;-74
2022/11/30 10:14:22;;;;;;;65.20;30.52;;;6.50;92.90;;;;;;4969705;28;20031;-75
2022/11/30 10:17:27;;;;;;;80.40;32.72;;;6.50;92.80;;;;;;4964843;28;20066;-76
2022/11/30 10:20:03;;;;;;;111.95;33.72;;;6.50;92.80;;;;;;4923931;28;20065;-77
2022/11/30 10:22:49;;;;;;;98.80;33.45;;;6.50;92.70;;;;;;4923774;28;20046;-75
2022/11/30 10:25:23;;;;;;;70.22;34.08;;;6.40;92.70;;;;;;4973727;28;20027;-76
2022/11/30 10:27:51;;;;;;;70.78;33.42;;;6.40;92.70;;;;;;4966837;28;20263;-78
2022/11/30 10:30:35;;;;;;;90.40;33.42;;;6.40;92.70;;;;;;4963209;28;20057;-76
2022/11/30 10:33:17;;;;;;;98.13;34.13;;;6.30;92.70;;;;;;4980826;28;20510;-76
2022/11/30 10:35:49;;;;;;;71.32;34.90;;;6.40;92.80;;;;;;4968479;28;20486;-75
2022/11/30 10:38:21;;;;;;;78.95;37.70;;;6.20;93.10;;;;;;4964358;28;20083;-76
2022/11/30 10:41:10;;;;;;;78.57;34.33;;;6.30;93.20;;;;;;4972195;28;20035;-76
2022/11/30 10:43:45;;;;;;;61.28;33.75;;;6.30;93.30;;;;;;4966833;28;20095;-76
2022/11/30 10:46:32;;;;;;;106.38;36.78;;;6.30;93.20;;;;;;4961612;28;20035;-76
2022/11/30 10:49:15;;;;;;;143.73;39.95;;;6.40;93.50;;;;;;4965956;28;20033;-77
2022/11/30 10:51:43;;;;;;;143.43;39.15;;;6.40;93.20;;;;;;4968553;28;20039;-75
2022/11/30 10:54:15;;;;;;;106.32;41.58;;;6.10;93.30;;;;;;4962956;28;20141;-82
2022/11/30 10:56:40;;;;;;;110.38;36.90;;;6.20;93.60;;;;;;4961968;28;20035;-76
2022/11/30 10:59:16;;;;;;;84.07;34.70;;;6.20;93.70;;;;;;4956230;28;20045;-74
2022/11/30 11:01:42;;;;;;;74.35;34.03;;;6.30;93.70;;;;;;4974134;28;20420;-74
2022/11/30 11:04:19;;;;;;;96.90;35.90;;;6.40;93.70;;;;;;4966431;28;20061;-75
2022/11/30 11:06:46;;;;;;;83.53;32.65;;;6.40;93.70;;;;;;4965788;28;20057;-78
2022/11/30 11:09:30;;;;;;;70.70;32.10;;;6.50;93.70;;;;;;4970468;28;20379;-75
2022/11/30 11:12:01;;;;;;;99.13;35.90;;;6.40;93.40;;;;;;4966162;28;20057;-75
2022/11/30 11:14:27;;;;;;;111.65;39.80;;;6.40;93.30;;;;;;4960472;28;20438;-74
2022/11/30 11:17:05;;;;;;;83.95;37.50;;;6.30;93.40;;;;;;4959257;28;20031;-75
2022/11/30 11:19:41;;;;;;;121.78;40.08;;;6.30;93.50;;;;;;4962099;28;20079;-76
2022/11/30 11:22:22;;;;;;;110.30;38.33;;;6.30;93.60;;;;;;4961235;28;20046;-76
2022/11/30 11:24:49;;;;;;;103.03;36.83;;;6.30;93.60;;;;;;4960347;28;20038;-75
2022/11/30 11:27:30;;;;;;;92.30;41.40;;;6.40;93.80;;;;;;4958403;28;20047;-77
2022/11/30 11:30:31;;;;;;;73.55;36.47;;;6.40;93.80;;;;;;4961601;28;20030;-76
2022/11/30 11:33:04;;;;;;;89.10;39.58;;;6.30;93.80;;;;;;4974375;28;20048;-76
2022/11/30 11:35:54;;;;;;;94.22;40.90;;;6.20;93.70;;;;;;4963236;28;20031;-76
2022/11/30 11:38:37;;;;;;;133.02;42.50;;;6.20;93.80;;;;;;4956455;28;20048;-76
2022/11/30 11:41:18;;;;;;;90.60;42.50;;;6.10;93.70;;;;;;4961956;28;20031;-80
2022/11/30 11:44:09;;;;;;;91.60;42.30;;;6.20;94.00;;;;;;4963880;28;20432;-77
2022/11/30 11:46:38;;;;;;;97.18;43.83;;;6.20;94.10;;;;;;4963148;28;20050;-75
2022/11/30 11:49:19;;;;;;;88.05;40.78;;;6.20;94.10;;;;;;4960967;28;20047;-75
2022/11/30 11:51:45;;;;;;;101.53;41.05;;;6.20;94.00;;;;;;4963125;28;20030;-78
2022/11/30 11:54:43;;;;;;;90.40;39.10;;;6.10;94.00;;;;;;4966412;28;20038;-75
2022/11/30 11:57:13;;;;;;;103.20;37.67;;;6.10;94.20;;;;;;4947082;28;20042;-77
2022/11/30 11:59:57;;;;;;;98.43;38.47;;;6.10;94.20;;;;;;4970814;28;20038;-76
2022/11/30 12:02:53;;;;;;;75.90;37.20;;;6.10;94.20;;;;;;4960064;28;20042;-76
2022/11/30 12:06:04;;;;;;;72.38;36.83;;;6.10;94.20;;;;;;4950976;28;20031;-74
2022/11/30 12:08:49;;;;;;;85.75;40.40;;;6.40;94.50;;;;;;4959885;28;20153;-76
2022/11/30 12:11:45;;;;;;;107.38;41.97;;;6.50;94.40;;;;;;4962974;28;20509;-76
2022/11/30 12:14:14;;;;;;;77.70;38.75;;;6.60;94.10;;;;;;4952667;28;20042;-78
2022/11/30 12:16:53;;;;;;;80.95;40.17;;;6.60;93.90;;;;;;4948423;28;20046;-74
2022/11/30 12:19:40;;;;;;;78.65;38.10;;;6.60;94.00;;;;;;4967813;28;20041;-75
2022/11/30 12:22:28;;;;;;;77.22;38.15;;;6.80;93.90;;;;;;4968555;28;20554;-77
2022/11/30 12:25:13;;;;;;;72.57;38.05;;;6.80;93.60;;;;;;4968613;28;20053;-75
2022/11/30 12:28:23;;;;;;;69.77;37.97;;;6.90;93.60;;;;;;4972064;28;20451;-74
2022/11/30 12:31:14;;;;;;;81.30;38.85;;;6.90;93.60;;;;;;4892649;29;20124;-76
2022/11/30 12:34:05;;;;;;;72.57;38.22;;;7.00;93.30;;;;;;4885530;29;20602;-76
2022/11/30 12:36:33;;;;;;;63.58;36.53;;;6.90;93.00;;;;;;4950689;28;20054;-77
2022/11/30 12:39:20;;;;;;;69.55;37.97;;;7.10;93.30;;;;;;4961242;28;20039;-73
2022/11/30 12:42:00;;;;;;;66.95;36.70;;;7.20;93.20;;;;;;4961706;28;20034;-76
2022/11/30 12:44:57;;;;;;;64.80;35.63;;;7.30;92.70;;;;;;4960930;28;20110;-77
2022/11/30 12:48:00;;;;;;;61.03;34.88;;;7.40;92.20;;;;;;4954717;28;20047;-76
2022/11/30 12:50:29;;;;;;;71.63;37.90;;;7.50;91.90;;;;;;4955935;28;20039;-80
2022/11/30 12:53:17;;;;;;;70.40;38.42;;;7.50;91.90;;;;;;4961693;28;20494;-81
2022/11/30 12:56:21;;;;;;;65.95;36.55;;;7.50;91.90;;;;;;4959942;28;20422;-81